Ana Sayfa
METAR-TAF:

METAR-TAF

Havaalanları :

Mendoza, Arjantin

Enlem: 32-50S, Boylam: 068-47W, yükseklik: 705 m

Güncel hava durumu gözlemi

Rapor saat 00:00 UTC de 54 dakika önce yapıldı.
Sakin rüzgar
Sıcaklık 10°C
Nem 62%
Basınç 1014 hPa
Görüş mesafesi 10 km veya daha fazla
1500 m altında bulut yok ve kümülonimbus yok

METAR: SAME 210000Z 00000KT CAVOK 10/03 Q1014

Saat: 21:54 (00:54 UTC)

Tahmin

Rapor saat 23:00 UTC de 1 saat ve 54 dakika önce yapıldı.
Ayın 21'si saat 00 UTC'den ayın 21'si saat 24 UTC'ye kadar geçerli Tahmin
Rüzgar güneybatıdan 5 kt
Görüş mesafesi 10 km veya daha fazla
1500 m altında bulut yok ve kümülonimbus yok

TAF: SAME 202300Z 2100/2124 23005KT CAVOK TX15/2120Z TN04/2110Z

4.000'den fazla havaalanı için hava durumu gözlemleri ve tahminleri (METAR ve TAF raporları).

Kullanılabilir istasyonlar harita üzerinde sarı ve kırmızı noktalarla gösterilir.

İstasyonun adını görmek için fareyi noktanın üzerinde gezdirin.

Sonrasında hava gözlem ve tahminlerini görmek için tıklayın.

Haritayı değiştirmek için: yaklaştırmak için siyah artı işaretli yeşil düğmeye ve uzaklaştırmak için de eksi işaretli düğmeye hızla tıklayın; bitişik haritalar için yeşil okları kullanın.


METAR-TAF: